createdAt,value
2023-02-06T00:01:49.157Z,100821.32
2023-02-06T00:04:17.609Z,100821.20
2023-02-06T00:06:49.273Z,100828.49
2023-02-06T00:09:17.754Z,100824.27
2023-02-06T00:11:47.497Z,100826.39
2023-02-06T00:14:15.851Z,100825.69
2023-02-06T00:17:03.990Z,100828.09
2023-02-06T00:19:32.883Z,100827.26
2023-02-06T00:22:01.776Z,100823.34
2023-02-06T00:24:30.362Z,100824.75
2023-02-06T00:26:58.745Z,100827.27
2023-02-06T00:29:27.124Z,100831.42
2023-02-06T00:31:55.814Z,100828.70
2023-02-06T00:34:24.617Z,100825.25
2023-02-06T00:36:53.293Z,100826.06
2023-02-06T00:39:21.777Z,100825.56
2023-02-06T00:41:50.620Z,100819.92
2023-02-06T00:44:19.255Z,100808.33
2023-02-06T00:46:47.740Z,100817.73
2023-02-06T00:49:16.135Z,100816.48
2023-02-06T00:51:45.120Z,100814.81
2023-02-06T00:54:13.806Z,100813.71
2023-02-06T00:56:43.728Z,100815.90
2023-02-06T00:59:13.640Z,100813.25
2023-02-06T01:01:42.396Z,100815.44
2023-02-06T01:04:10.809Z,100814.95
2023-02-06T01:06:59.465Z,100811.38
2023-02-06T01:09:28.053Z,100810.83
2023-02-06T01:11:58.174Z,100808.80
2023-02-06T01:14:27.675Z,100808.23
2023-02-06T01:16:56.162Z,100807.92
2023-02-06T01:19:25.153Z,100805.88
2023-02-06T01:21:53.752Z,100806.78
2023-02-06T01:24:22.640Z,100810.02
2023-02-06T01:26:51.012Z,100811.19
2023-02-06T01:29:20.313Z,100818.85
2023-02-06T01:31:48.698Z,100818.17
2023-02-06T01:34:18.714Z,100821.66
2023-02-06T01:36:47.196Z,100819.75
2023-02-06T01:39:15.680Z,100822.55
2023-02-06T01:41:46.722Z,100821.84
2023-02-06T01:44:22.291Z,100821.90
2023-02-06T01:46:52.413Z,100822.75
2023-02-06T01:49:42.383Z,100824.20
2023-02-06T01:52:16.907Z,100824.42
2023-02-06T01:54:49.834Z,100825.95
2023-02-06T01:57:18.176Z,100829.73
2023-02-06T01:59:50.959Z,100835.03
2023-02-06T02:02:19.474Z,100827.98
2023-02-06T02:04:48.233Z,100833.60
2023-02-06T02:07:32.904Z,100834.04
2023-02-06T02:10:02.925Z,100826.02
2023-02-06T02:12:35.804Z,100837.26
2023-02-06T02:15:05.522Z,100837.92
2023-02-06T02:17:39.069Z,100838.88
2023-02-06T02:20:16.725Z,100836.24
2023-02-06T02:23:00.464Z,100827.05
2023-02-06T02:26:05.566Z,100842.44
2023-02-06T02:28:34.500Z,100844.31
2023-02-06T02:31:11.094Z,100843.40
2023-02-06T02:34:01.066Z,100841.71
2023-02-06T02:36:37.150Z,100842.14
2023-02-06T02:39:26.600Z,100843.84
2023-02-06T02:41:59.177Z,100843.52
2023-02-06T02:44:39.845Z,100844.21
2023-02-06T02:47:08.530Z,100853.75
2023-02-06T02:49:37.119Z,100860.27
2023-02-06T02:52:05.908Z,100857.38
2023-02-06T02:54:34.492Z,100860.14
2023-02-06T02:57:10.139Z,100863.79
2023-02-06T02:59:41.701Z,100865.34
2023-02-06T03:02:21.879Z,100866.55
2023-02-06T03:05:00.589Z,100871.34
2023-02-06T03:07:39.913Z,100869.70
2023-02-06T03:10:41.061Z,100872.39
2023-02-06T03:13:23.472Z,100876.83
2023-02-06T03:16:03.118Z,100875.18
2023-02-06T03:18:51.055Z,100877.91
2023-02-06T03:21:20.458Z,100875.65
2023-02-06T03:23:50.512Z,100873.80
2023-02-06T03:26:21.011Z,100874.30
2023-02-06T03:28:51.957Z,100876.06
2023-02-06T03:31:26.648Z,100881.23
2023-02-06T03:34:09.582Z,100882.53
2023-02-06T03:36:38.190Z,100884.33
2023-02-06T03:39:06.674Z,100886.97
2023-02-06T03:41:37.591Z,100887.04
2023-02-06T03:44:08.864Z,100887.64
2023-02-06T03:46:37.346Z,100888.21
2023-02-06T03:49:07.480Z,100888.20
2023-02-06T03:51:39.330Z,100885.77
2023-02-06T03:54:07.918Z,100887.60
2023-02-06T03:56:47.564Z,100887.51
2023-02-06T03:59:15.974Z,100894.90
2023-02-06T04:01:46.174Z,100891.77
2023-02-06T04:04:19.190Z,100892.33
2023-02-06T04:06:48.060Z,100887.15
2023-02-06T04:09:16.739Z,100885.59
2023-02-06T04:11:45.226Z,100882.08
2023-02-06T04:14:14.323Z,100888.36
2023-02-06T04:16:43.156Z,100895.35
2023-02-06T04:21:37.827Z,100891.23
2023-02-06T04:24:06.617Z,100895.73
2023-02-06T04:26:34.996Z,100899.84
2023-02-06T04:29:03.397Z,100899.21
2023-02-06T04:31:32.079Z,100902.14
2023-02-06T04:34:00.574Z,100907.66
2023-02-06T04:36:29.236Z,100911.92
2023-02-06T04:38:57.820Z,100910.08
2023-02-06T04:41:26.203Z,100914.60
2023-02-06T04:43:54.584Z,100916.77
2023-02-06T04:46:23.026Z,100917.17
2023-02-06T04:48:51.609Z,100914.60
2023-02-06T04:51:19.927Z,100917.11
2023-02-06T04:53:48.408Z,100920.82
2023-02-06T04:56:16.791Z,100918.71
2023-02-06T04:58:45.174Z,100923.45
2023-02-06T05:01:13.774Z,100920.88
2023-02-06T05:03:42.338Z,100921.20
2023-02-06T05:06:10.717Z,100922.63
2023-02-06T05:08:39.206Z,100923.98
2023-02-06T05:11:11.064Z,100927.83
2023-02-06T05:13:39.850Z,100925.77
2023-02-06T05:16:14.486Z,100925.12
2023-02-06T05:18:44.911Z,100927.65
2023-02-06T05:21:14.231Z,100929.34
2023-02-06T05:23:42.598Z,100929.97
2023-02-06T05:26:11.076Z,100933.92
2023-02-06T05:28:39.449Z,100934.97
2023-02-06T05:31:08.313Z,100937.27
2023-02-06T05:33:37.645Z,100936.23
2023-02-06T05:36:07.336Z,100936.52
2023-02-06T05:38:36.044Z,100935.59
2023-02-06T05:41:04.424Z,100938.45
2023-02-06T05:43:34.137Z,100937.49
2023-02-06T05:46:02.559Z,100938.52
2023-02-06T05:48:31.410Z,100938.92
2023-02-06T05:50:59.793Z,100941.39
2023-02-06T05:53:28.703Z,100939.54
2023-02-06T05:55:57.371Z,100940.54
2023-02-06T05:58:25.966Z,100941.56
2023-02-06T06:00:54.440Z,100936.29
2023-02-06T06:03:22.927Z,100941.74
2023-02-06T06:05:53.565Z,100942.40
2023-02-06T06:08:22.149Z,100941.10
2023-02-06T06:10:51.762Z,100943.44
2023-02-06T06:13:22.180Z,100943.21
2023-02-06T06:15:52.126Z,100943.60
2023-02-06T06:18:20.900Z,100946.20
2023-02-06T06:20:49.679Z,100946.48
2023-02-06T06:23:18.295Z,100945.05
2023-02-06T06:25:47.566Z,100947.88
2023-02-06T06:28:16.758Z,100948.48
2023-02-06T06:30:45.285Z,100948.88
2023-02-06T08:07:33.474Z,100991.20
2023-02-06T08:10:01.858Z,100992.58
2023-02-06T08:12:31.053Z,100991.84
2023-02-06T09:15:05.709Z,101021.52
2023-02-06T09:17:36.470Z,101021.99
2023-02-06T09:20:05.554Z,101024.11
2023-02-06T09:22:36.188Z,101021.78
2023-02-06T09:25:05.514Z,101027.03
2023-02-06T09:27:34.288Z,101027.39
2023-02-06T09:30:04.017Z,101027.76
2023-02-06T09:32:32.474Z,101025.09
2023-02-06T09:35:03.105Z,101025.39
2023-02-06T09:37:31.591Z,101032.36
2023-02-06T09:39:59.973Z,101032.13
2023-02-06T09:42:36.502Z,101031.40
2023-02-06T09:45:12.703Z,101029.35
2023-02-06T09:47:47.274Z,101030.14
2023-02-06T09:50:20.319Z,101030.34
2023-02-06T09:52:55.152Z,101027.04
2023-02-06T09:55:35.074Z,101024.59
2023-02-06T09:58:16.393Z,101020.77
2023-02-06T10:00:47.025Z,101021.63
2023-02-06T10:03:34.555Z,101019.50
2023-02-06T10:06:08.978Z,101016.70
2023-02-06T10:08:41.659Z,101014.56
2023-02-06T10:11:11.676Z,101014.75
2023-02-06T10:13:40.670Z,101012.15
2023-02-06T10:16:35.775Z,101013.66
2023-02-06T10:19:15.218Z,101009.41
2023-02-06T10:21:55.474Z,101008.64
2023-02-06T10:24:27.847Z,101004.17
2023-02-06T10:26:57.969Z,100999.93
2023-02-06T10:29:30.763Z,101000.66
2023-02-06T10:32:01.929Z,100999.58
2023-02-06T10:34:46.155Z,101001.25
2023-02-06T10:37:24.769Z,100998.91
2023-02-06T10:39:53.047Z,100996.85
2023-02-06T10:42:40.271Z,100982.55
2023-02-06T10:45:27.290Z,100999.73
2023-02-06T10:47:55.788Z,100996.71
2023-02-06T10:50:31.935Z,101002.70
2023-02-06T10:53:01.567Z,100999.48
2023-02-06T10:55:42.798Z,100999.21
2023-02-06T10:58:17.451Z,100997.07
2023-02-06T11:00:45.871Z,100993.50
2023-02-06T11:03:15.135Z,100990.52
2023-02-06T11:05:43.724Z,100995.75
2023-02-06T11:08:32.169Z,100997.70
2023-02-06T11:11:13.868Z,100995.15
2023-02-06T11:13:42.141Z,100996.48
2023-02-06T11:16:16.600Z,100995.33
2023-02-06T11:18:46.280Z,100996.33
2023-02-06T11:21:15.280Z,100994.27
2023-02-06T11:23:44.066Z,100989.56
2023-02-06T11:26:15.415Z,100992.52
2023-02-06T11:28:57.311Z,100992.55
2023-02-06T11:31:39.898Z,100992.85
2023-02-06T11:34:17.836Z,100988.64
2023-02-06T11:36:45.964Z,100990.05
2023-02-06T11:39:23.301Z,100986.42
2023-02-06T11:41:58.855Z,100986.19
2023-02-06T11:44:27.635Z,100984.55
2023-02-06T11:46:57.347Z,100983.63
2023-02-06T11:49:27.269Z,100979.98
2023-02-06T11:51:55.858Z,100982.00
2023-02-06T11:54:29.156Z,100982.91
2023-02-06T11:56:57.738Z,100977.30
2023-02-06T11:59:27.757Z,100974.49
2023-02-06T12:01:57.831Z,100974.96
2023-02-06T12:04:34.347Z,100981.40
2023-02-06T12:07:08.564Z,100978.09
2023-02-06T12:09:36.854Z,100977.29
2023-02-06T12:12:05.224Z,100974.27
2023-02-06T12:14:39.853Z,100971.91
2023-02-06T12:17:20.418Z,100968.53
2023-02-06T12:19:50.242Z,100964.46
2023-02-06T12:22:19.559Z,100963.98
2023-02-06T12:24:48.839Z,100961.16
2023-02-06T12:27:21.421Z,100963.27
2023-02-06T12:29:54.950Z,100966.39
2023-02-06T12:32:24.730Z,100965.73
2023-02-06T12:34:56.201Z,100968.18
2023-02-06T12:37:32.143Z,100970.98
2023-02-06T12:40:00.481Z,100970.66
2023-02-06T12:42:38.938Z,100975.03
2023-02-06T12:45:07.725Z,100971.20
2023-02-06T12:47:51.058Z,100970.48
2023-02-06T12:50:27.526Z,100970.09
2023-02-06T12:53:03.077Z,100968.27
2023-02-06T12:55:38.869Z,100967.92
2023-02-06T12:58:25.746Z,100966.09
2023-02-06T13:00:55.456Z,100955.59
2023-02-06T13:03:27.937Z,100965.40
2023-02-06T13:06:02.975Z,100966.13
2023-02-06T13:08:38.545Z,100967.42
2023-02-06T13:11:08.469Z,100963.43
2023-02-06T13:13:39.803Z,100960.14
2023-02-06T13:16:08.427Z,100955.42
2023-02-06T13:18:44.850Z,100954.57
2023-02-06T13:21:14.379Z,100958.61
2023-02-06T13:23:49.706Z,100957.64
2023-02-06T13:26:17.879Z,100956.27
2023-02-06T13:28:46.973Z,100961.15
2023-02-06T13:31:22.468Z,100967.39
2023-02-06T13:33:52.340Z,100970.45
2023-02-06T13:36:40.022Z,100971.51
2023-02-06T16:46:42.156Z,101037.21
2023-02-06T16:49:17.130Z,101040.40
2023-02-06T16:51:46.230Z,101049.05
2023-02-06T16:54:32.835Z,101043.16
2023-02-06T16:57:24.253Z,101032.93
2023-02-06T16:59:53.256Z,101028.55
2023-02-06T17:02:21.737Z,101023.20
2023-02-06T17:04:50.392Z,101019.36
2023-02-06T17:07:23.407Z,101018.05
2023-02-06T17:09:52.096Z,101019.92
2023-02-06T17:12:21.402Z,101017.80
2023-02-06T17:14:49.989Z,101021.01
2023-02-06T17:17:20.399Z,101023.37
2023-02-06T17:19:50.427Z,101017.67
2023-02-06T17:22:18.814Z,101017.44
2023-02-06T17:24:47.812Z,101018.19
2023-02-06T17:27:21.552Z,101019.83
2023-02-06T17:29:50.621Z,101016.19
2023-02-06T17:32:22.444Z,101018.42
2023-02-06T17:34:54.492Z,101015.05
2023-02-06T17:37:23.020Z,101012.05
2023-02-06T17:39:52.328Z,101010.91
2023-02-06T17:42:22.186Z,101008.69
2023-02-06T17:44:50.832Z,101012.86
2023-02-06T17:47:19.421Z,101019.58
2023-02-06T17:49:47.811Z,101027.79
2023-02-06T17:52:16.850Z,101026.73
2023-02-06T17:54:45.490Z,101022.83
2023-02-06T17:57:14.179Z,101027.41
2023-02-06T17:59:43.902Z,101035.98
2023-02-06T18:02:14.110Z,101032.31
2023-02-06T18:04:43.006Z,101031.09
2023-02-06T18:07:11.490Z,101031.71
2023-02-06T18:09:42.427Z,101031.77
2023-02-06T18:12:11.430Z,101030.21
2023-02-06T18:14:40.847Z,101034.77
2023-02-06T18:29:21.895Z,101039.49
2023-02-06T18:31:50.690Z,101042.35
2023-02-06T18:34:20.523Z,101048.35
2023-02-06T18:36:49.496Z,101048.94
2023-02-06T18:39:17.872Z,101048.88
2023-02-06T18:42:04.787Z,101047.90
2023-02-06T18:44:35.221Z,101054.27
2023-02-06T18:47:04.112Z,101052.17
2023-02-06T18:49:32.591Z,101050.71
2023-02-06T18:52:01.278Z,101050.10
2023-02-06T18:54:29.964Z,101047.42
2023-02-06T18:56:58.450Z,101046.36
2023-02-06T18:59:27.038Z,101048.25
2023-02-06T19:01:55.552Z,101047.78
2023-02-06T19:04:24.309Z,101052.55
2023-02-06T19:06:52.904Z,101032.14
2023-02-06T19:09:21.382Z,101045.63
2023-02-06T19:11:49.869Z,101038.35
2023-02-06T19:14:22.749Z,101042.95
2023-02-06T19:16:54.816Z,101043.14
2023-02-06T19:19:23.402Z,101046.84
2023-02-06T19:21:51.792Z,101043.48
2023-02-06T19:24:20.267Z,101045.73
2023-02-06T19:26:48.734Z,101046.27
2023-02-06T19:29:26.819Z,101049.42
2023-02-06T19:32:07.314Z,101046.36
2023-02-06T19:34:39.928Z,101039.42
2023-02-06T19:37:10.053Z,101037.96
2023-02-06T19:39:40.542Z,101038.38
2023-02-06T19:42:09.952Z,101034.02
2023-02-06T19:44:39.047Z,101032.59
2023-02-06T19:47:07.329Z,101028.75
2023-02-06T19:49:36.108Z,101027.71
2023-02-06T19:52:04.896Z,101026.95
2023-02-06T19:54:34.199Z,101027.79
2023-02-06T19:57:02.593Z,101025.67
2023-02-06T19:59:32.287Z,101024.69
2023-02-06T20:02:02.200Z,101024.59
2023-02-06T20:04:34.881Z,101031.73
2023-02-06T20:07:03.466Z,101026.82
2023-02-06T20:09:33.585Z,101025.74
2023-02-06T20:12:02.995Z,101023.94
2023-02-06T20:14:31.991Z,101022.55
2023-02-06T20:17:00.599Z,101022.11
2023-02-06T20:19:29.714Z,101017.16
2023-02-06T20:21:59.528Z,101019.52
2023-02-06T20:24:30.316Z,101014.67
2023-02-06T20:27:02.111Z,101017.63
2023-02-06T20:29:35.068Z,101015.27
2023-02-06T20:32:04.703Z,101016.80
2023-02-06T20:34:33.463Z,101023.27
2023-02-06T20:37:01.945Z,101022.81
2023-02-06T20:39:31.255Z,101022.77
2023-02-06T20:41:59.633Z,101020.08
2023-02-06T20:44:28.640Z,101013.63
2023-02-06T20:46:57.209Z,101014.17
2023-02-06T20:49:27.407Z,101020.93
2023-02-06T20:51:55.935Z,101020.83
2023-02-06T20:54:25.790Z,101018.20
2023-02-06T20:56:54.097Z,101022.19
2023-02-06T20:59:22.481Z,101021.39
2023-02-06T21:01:51.064Z,101019.23
2023-02-06T21:04:19.860Z,101018.28
2023-02-06T21:06:48.852Z,101022.70
2023-02-06T21:09:17.949Z,101019.61
2023-02-06T21:11:48.381Z,101013.66
2023-02-06T21:14:19.024Z,101010.61
2023-02-06T21:16:48.112Z,101011.38
2023-02-06T21:19:18.124Z,101010.70
2023-02-06T21:21:47.248Z,101012.86
2023-02-06T21:24:16.116Z,101013.43
2023-02-06T21:26:44.601Z,101009.77
2023-02-06T21:29:13.977Z,101006.45
2023-02-06T21:31:43.325Z,101005.39
2023-02-06T21:34:17.448Z,101001.16
2023-02-06T21:36:45.909Z,101000.80
2023-02-06T21:39:17.065Z,100998.02
2023-02-06T21:41:45.843Z,100999.61
2023-02-06T21:44:14.635Z,100998.27
2023-02-06T21:46:43.019Z,100995.48
2023-02-06T21:49:11.903Z,100997.50
2023-02-06T21:51:40.485Z,100994.13
2023-02-06T21:54:09.388Z,100992.23
2023-02-06T21:56:40.838Z,100993.84
2023-02-06T21:59:10.167Z,100992.42
2023-02-06T22:01:40.852Z,100987.69
2023-02-06T22:04:10.285Z,100986.05
2023-02-06T22:06:39.285Z,100987.61
2023-02-06T22:09:09.453Z,100984.26
2023-02-06T22:11:39.385Z,100988.90
2023-02-06T22:14:16.091Z,100988.41
2023-02-06T22:16:48.713Z,100987.41
2023-02-06T22:19:18.085Z,100980.83
2023-02-06T22:21:49.120Z,100975.72
2023-02-06T22:24:18.218Z,100972.63
2023-02-06T22:26:47.520Z,100971.14
2023-02-06T22:29:17.250Z,100962.88
2023-02-06T22:31:46.065Z,100964.11
2023-02-06T22:34:16.654Z,100956.33
2023-02-06T22:36:45.465Z,100954.66
2023-02-06T22:39:14.644Z,100952.94
2023-02-06T22:41:44.893Z,100954.06
2023-02-06T22:44:16.824Z,100957.02
2023-02-06T22:46:48.102Z,100960.11
2023-02-06T22:49:16.693Z,100958.81
2023-02-06T22:51:46.990Z,100961.78
2023-02-06T22:54:15.574Z,100958.83
2023-02-06T22:56:46.318Z,100956.48
2023-02-06T22:59:18.378Z,100953.30
2023-02-06T23:01:54.325Z,100954.77
2023-02-06T23:04:28.390Z,100947.25
2023-02-06T23:06:57.861Z,100952.81
2023-02-06T23:09:28.227Z,100954.30
2023-02-06T23:11:58.624Z,100953.66
2023-02-06T23:14:28.340Z,100952.91
2023-02-06T23:17:00.909Z,100949.40
2023-02-06T23:19:30.417Z,100944.27
2023-02-06T23:21:58.802Z,100935.08
2023-02-06T23:24:27.284Z,100933.69
2023-02-06T23:26:56.282Z,100932.08
2023-02-06T23:29:25.588Z,100921.77
2023-02-06T23:31:55.804Z,100918.43
2023-02-06T23:34:24.741Z,100922.69
2023-02-06T23:36:56.153Z,100920.07
2023-02-06T23:39:24.940Z,100919.03
2023-02-06T23:41:53.627Z,100923.02
2023-02-06T23:44:22.416Z,100923.23
2023-02-06T23:46:52.336Z,100926.62
2023-02-06T23:49:20.816Z,100928.80
2023-02-06T23:51:49.197Z,100931.12
2023-02-06T23:54:17.577Z,100933.39
2023-02-06T23:56:46.579Z,100937.26
2023-02-06T23:59:15.065Z,100934.97
